createdAt,value
2017-05-17T00:00:11.213Z,54.11
2017-05-17T00:01:12.630Z,54.11
2017-05-17T00:02:14.046Z,54.02
2017-05-17T00:03:15.464Z,54.11
2017-05-17T00:04:16.881Z,54.02
2017-05-17T00:05:18.298Z,54.31
2017-05-17T00:06:19.718Z,54.60
2017-05-17T00:07:21.137Z,54.21
2017-05-17T00:08:22.553Z,54.11
2017-05-17T00:09:23.968Z,54.11
2017-05-17T00:10:25.384Z,53.63
2017-05-17T00:11:26.802Z,53.73
2017-05-17T00:12:28.218Z,54.11
2017-05-17T00:13:29.638Z,54.11
2017-05-17T00:14:31.055Z,54.31
2017-05-17T00:15:32.471Z,54.21
2017-05-17T00:16:33.890Z,54.11
2017-05-17T00:17:35.305Z,54.31
2017-05-17T00:18:36.724Z,54.21
2017-05-17T00:19:38.143Z,54.69
2017-05-17T00:20:39.560Z,54.11
2017-05-17T00:21:40.979Z,54.21
2017-05-17T00:22:42.394Z,53.92
2017-05-17T00:23:43.813Z,53.73
2017-05-17T00:24:45.226Z,54.40
2017-05-17T00:25:46.647Z,54.21
2017-05-17T00:26:48.061Z,54.40
2017-05-17T00:27:49.482Z,53.83
2017-05-17T00:28:50.901Z,54.11
2017-05-17T00:29:52.318Z,54.50
2017-05-17T00:30:53.734Z,54.31
2017-05-17T00:31:55.150Z,54.11
2017-05-17T00:32:56.566Z,53.63
2017-05-17T00:33:57.983Z,53.53
2017-05-17T00:34:59.402Z,54.11
2017-05-17T00:36:00.822Z,54.31
2017-05-17T00:37:02.238Z,54.11
2017-05-17T00:38:03.651Z,54.50
2017-05-17T00:39:05.071Z,54.60
2017-05-17T00:40:06.487Z,54.40
2017-05-17T00:41:07.905Z,54.21
2017-05-17T00:42:09.324Z,54.40
2017-05-17T00:43:10.743Z,54.11
2017-05-17T00:44:12.159Z,54.18
2017-05-17T00:45:13.574Z,54.21
2017-05-17T00:46:14.990Z,54.21
2017-05-17T00:47:16.408Z,55.18
2017-05-17T00:48:17.827Z,54.50
2017-05-17T00:49:19.245Z,53.99
2017-05-17T00:50:20.664Z,54.09
2017-05-17T00:51:22.080Z,54.11
2017-05-17T00:52:23.495Z,54.11
2017-05-17T00:53:24.915Z,54.18
2017-05-17T00:54:26.332Z,54.76
2017-05-17T00:55:27.751Z,54.18
2017-05-17T00:56:29.170Z,53.83
2017-05-17T00:57:30.588Z,54.40
2017-05-17T00:58:32.005Z,54.02
2017-05-17T00:59:33.418Z,55.18
2017-05-17T01:00:34.838Z,55.24
2017-05-17T01:01:36.253Z,54.11
2017-05-17T01:02:37.671Z,55.24
2017-05-17T01:03:39.091Z,55.15
2017-05-17T01:04:40.510Z,54.79
2017-05-17T01:05:41.927Z,55.36
2017-05-17T01:06:43.342Z,55.18
2017-05-17T01:07:44.758Z,55.63
2017-05-17T01:08:46.175Z,55.44
2017-05-17T01:09:47.590Z,55.73
2017-05-17T01:10:49.009Z,55.63
2017-05-17T01:11:50.428Z,55.46
2017-05-17T01:12:51.842Z,55.24
2017-05-17T01:13:53.261Z,54.57
2017-05-17T01:14:54.677Z,55.15
2017-05-17T01:15:56.092Z,55.15
2017-05-17T01:16:57.511Z,54.96
2017-05-17T01:17:58.936Z,55.85
2017-05-17T01:19:00.356Z,54.96
2017-05-17T01:20:01.775Z,54.86
2017-05-17T01:21:03.189Z,55.05
2017-05-17T01:22:04.607Z,55.05
2017-05-17T01:23:06.026Z,54.88
2017-05-17T01:24:07.446Z,54.66
2017-05-17T01:25:08.864Z,54.96
2017-05-17T01:26:10.283Z,54.76
2017-05-17T01:27:11.701Z,54.76
2017-05-17T01:28:13.115Z,54.47
2017-05-17T01:29:14.532Z,55.15
2017-05-17T01:30:15.951Z,54.57
2017-05-17T01:31:17.369Z,54.66
2017-05-17T01:32:18.812Z,54.66
2017-05-17T01:33:20.230Z,54.57
2017-05-17T01:34:21.646Z,54.76
2017-05-17T01:35:23.062Z,54.47
2017-05-17T01:36:24.480Z,54.76
2017-05-17T01:37:25.898Z,54.28
2017-05-17T01:38:27.318Z,53.99
2017-05-17T01:39:28.734Z,54.38
2017-05-17T01:40:30.153Z,54.28
2017-05-17T01:41:31.569Z,54.47
2017-05-17T01:42:32.986Z,53.70
2017-05-17T01:43:34.401Z,54.09
2017-05-17T01:44:35.819Z,54.09
2017-05-17T01:45:37.237Z,54.09
2017-05-17T01:46:38.658Z,53.70
2017-05-17T01:47:40.074Z,53.80
2017-05-17T01:48:41.491Z,52.93
2017-05-17T01:49:42.906Z,53.03
2017-05-17T01:50:44.324Z,53.22
2017-05-17T01:51:45.739Z,54.09
2017-05-17T01:52:47.159Z,53.80
2017-05-17T01:53:48.580Z,53.70
2017-05-17T01:54:49.996Z,54.47
2017-05-17T01:55:51.412Z,54.09
2017-05-17T01:56:52.828Z,53.51
2017-05-17T01:57:54.250Z,53.61
2017-05-17T01:58:55.661Z,53.70
2017-05-17T01:59:57.079Z,53.22
2017-05-17T02:00:58.497Z,53.70
2017-05-17T02:01:59.918Z,53.41
2017-05-17T02:03:01.331Z,53.80
2017-05-17T02:04:02.748Z,53.99
2017-05-17T02:05:04.165Z,53.51
2017-05-17T02:06:05.582Z,52.83
2017-05-17T02:07:07.000Z,53.22
2017-05-17T02:08:08.419Z,53.13
2017-05-17T02:09:09.837Z,53.22
2017-05-17T02:10:11.251Z,52.93
2017-05-17T02:11:12.665Z,53.03
2017-05-17T02:12:14.084Z,53.22
2017-05-17T02:13:15.502Z,52.83
2017-05-17T02:14:16.919Z,52.93
2017-05-17T02:15:18.338Z,53.22
2017-05-17T02:16:19.761Z,53.31
2017-05-17T02:17:21.174Z,53.22
2017-05-17T02:18:22.593Z,52.35
2017-05-17T02:19:24.008Z,52.55
2017-05-17T02:20:25.424Z,53.03
2017-05-17T02:21:26.840Z,52.45
2017-05-17T02:22:28.258Z,53.13
2017-05-17T02:23:29.676Z,52.45
2017-05-17T02:24:31.092Z,53.22
2017-05-17T02:25:32.507Z,52.64
2017-05-17T02:26:33.924Z,52.06
2017-05-17T02:27:35.340Z,53.03
2017-05-17T02:28:36.758Z,51.97
2017-05-17T02:29:38.177Z,52.25
2017-05-17T02:30:39.597Z,53.03
2017-05-17T02:31:41.010Z,52.55
2017-05-17T02:32:42.431Z,52.35
2017-05-17T02:33:43.844Z,52.35
2017-05-17T02:34:45.263Z,51.87
2017-05-17T02:35:46.679Z,52.35
2017-05-17T02:36:48.099Z,52.35
2017-05-17T02:37:49.518Z,51.48
2017-05-17T02:38:50.932Z,51.68
2017-05-17T02:39:52.348Z,50.90
2017-05-17T02:40:53.765Z,51.20
2017-05-17T02:41:55.183Z,51.20
2017-05-17T02:42:56.601Z,51.48
2017-05-17T02:43:58.020Z,52.06
2017-05-17T02:44:59.438Z,51.87
2017-05-17T02:46:00.855Z,51.58
2017-05-17T02:47:02.283Z,51.58
2017-05-17T02:48:03.699Z,51.20
2017-05-17T02:49:05.118Z,51.58
2017-05-17T02:50:06.537Z,51.58
2017-05-17T02:51:07.958Z,51.20
2017-05-17T02:52:09.374Z,50.90
2017-05-17T02:53:10.789Z,51.58
2017-05-17T02:54:12.206Z,51.20
2017-05-17T02:55:13.623Z,51.10
2017-05-17T02:56:15.041Z,51.68
2017-05-17T02:57:16.459Z,51.77
2017-05-17T02:58:17.876Z,51.00
2017-05-17T02:59:19.295Z,51.58
2017-05-17T03:00:20.710Z,50.71
2017-05-17T03:01:22.125Z,50.62
2017-05-17T03:02:23.542Z,50.62
2017-05-17T03:03:24.961Z,50.71
2017-05-17T03:04:26.379Z,50.90
2017-05-17T03:05:27.798Z,50.52
2017-05-17T03:06:29.216Z,51.87
2017-05-17T03:07:30.632Z,50.52
2017-05-17T03:08:32.052Z,51.77
2017-05-17T03:09:33.465Z,51.87
2017-05-17T03:10:34.882Z,51.39
2017-05-17T03:11:36.300Z,51.68
2017-05-17T03:12:37.718Z,51.10
2017-05-17T03:13:39.137Z,51.77
2017-05-17T03:14:40.555Z,51.77
2017-05-17T03:15:41.972Z,51.77
2017-05-17T03:16:43.434Z,51.20
2017-05-17T03:17:44.804Z,51.68
2017-05-17T03:18:46.224Z,51.10
2017-05-17T03:19:47.641Z,51.00
2017-05-17T03:20:49.060Z,50.90
2017-05-17T03:21:50.476Z,51.20
2017-05-17T03:22:51.891Z,51.10
2017-05-17T03:23:53.309Z,51.00
2017-05-17T03:24:54.725Z,50.90
2017-05-17T03:25:56.144Z,50.71
2017-05-17T03:26:57.563Z,50.71
2017-05-17T03:27:58.984Z,50.71
2017-05-17T03:29:00.397Z,50.71
2017-05-17T03:30:01.815Z,50.42
2017-05-17T03:31:03.230Z,51.00
2017-05-17T03:32:04.646Z,51.10
2017-05-17T03:33:06.063Z,51.10
2017-05-17T03:34:07.481Z,50.62
2017-05-17T03:35:08.900Z,50.90
2017-05-17T03:36:10.316Z,50.90
2017-05-17T03:37:11.730Z,50.52
2017-05-17T03:38:13.148Z,50.62
2017-05-17T03:39:14.568Z,50.32
2017-05-17T03:40:15.987Z,50.62
2017-05-17T03:41:17.405Z,50.71
2017-05-17T03:42:18.828Z,50.52
2017-05-17T03:43:20.245Z,50.71
2017-05-17T03:44:21.661Z,50.23
2017-05-17T03:45:23.083Z,50.62
2017-05-17T03:46:24.501Z,50.81
2017-05-17T03:47:25.922Z,50.52
2017-05-17T03:48:27.342Z,50.62
2017-05-17T03:49:28.763Z,50.62
2017-05-17T03:50:30.179Z,50.62
2017-05-17T03:51:31.595Z,50.42
2017-05-17T03:52:33.014Z,50.71
2017-05-17T03:53:34.431Z,50.62
2017-05-17T03:54:35.850Z,50.52
2017-05-17T03:55:37.272Z,50.71
2017-05-17T03:56:38.690Z,50.42
2017-05-17T03:57:40.108Z,50.52
2017-05-17T03:58:41.528Z,50.71
2017-05-17T03:59:42.944Z,50.52
2017-05-17T04:00:44.366Z,50.52
2017-05-17T04:01:45.785Z,50.71
2017-05-17T04:02:47.210Z,50.52
2017-05-17T04:03:48.625Z,50.62
2017-05-17T04:04:50.041Z,50.62
2017-05-17T04:05:51.458Z,50.52
2017-05-17T04:06:52.874Z,50.52
2017-05-17T04:07:54.359Z,50.52
2017-05-17T04:08:55.748Z,50.52
2017-05-17T04:09:58.004Z,50.52
2017-05-17T04:10:59.456Z,50.71
2017-05-17T04:12:00.873Z,50.42
2017-05-17T04:13:02.291Z,51.68
2017-05-17T04:14:03.713Z,50.52
2017-05-17T04:15:05.192Z,50.04
2017-05-17T04:16:07.111Z,50.13
2017-05-17T04:17:09.086Z,49.94
2017-05-17T04:18:10.510Z,49.84
2017-05-17T04:19:11.932Z,50.23
2017-05-17T04:20:13.861Z,50.13
2017-05-17T04:21:15.739Z,50.23
2017-05-17T04:22:17.162Z,50.62
2017-05-17T04:23:18.583Z,50.90
2017-05-17T04:24:20.006Z,50.62
2017-05-17T04:25:21.430Z,51.00
2017-05-17T04:26:22.850Z,50.71
2017-05-17T04:27:24.272Z,50.81
2017-05-17T04:28:25.694Z,50.71
2017-05-17T04:29:27.115Z,50.90
2017-05-17T04:30:28.537Z,50.62
2017-05-17T04:31:29.960Z,51.20
2017-05-17T04:32:31.382Z,50.52
2017-05-17T04:33:32.801Z,49.94
2017-05-17T04:34:34.223Z,48.69
2017-05-17T04:35:35.643Z,47.53
2017-05-17T04:36:37.065Z,46.64
2017-05-17T04:37:38.487Z,46.25
2017-05-17T04:38:39.913Z,45.77
2017-05-17T04:39:41.335Z,45.58
2017-05-17T04:40:42.754Z,45.77
2017-05-17T04:41:44.181Z,46.55
2017-05-17T04:42:45.595Z,46.81
2017-05-17T04:43:47.012Z,47.03
2017-05-17T04:44:48.433Z,47.41
2017-05-17T04:45:49.860Z,46.83
2017-05-17T04:46:51.283Z,46.83
2017-05-17T04:47:52.702Z,47.19
2017-05-17T04:48:54.121Z,47.39
2017-05-17T04:49:55.543Z,47.49
2017-05-17T04:50:56.968Z,47.97
2017-05-17T04:51:58.388Z,47.77
2017-05-17T04:52:59.813Z,48.06
2017-05-17T04:54:01.235Z,47.58
2017-05-17T04:55:02.654Z,48.06
2017-05-17T04:56:04.075Z,47.49
2017-05-17T04:57:05.495Z,48.06
2017-05-17T04:58:06.920Z,47.97
2017-05-17T04:59:08.341Z,48.44
2017-05-17T05:00:09.762Z,48.74
2017-05-17T05:01:11.183Z,48.43
2017-05-17T05:02:12.602Z,49.60
2017-05-17T05:03:14.019Z,48.44
2017-05-17T05:04:15.440Z,47.87
2017-05-17T05:05:16.859Z,48.35
2017-05-17T05:06:20.398Z,48.44
2017-05-17T05:07:21.049Z,47.49
2017-05-17T05:08:22.470Z,47.58
2017-05-17T05:09:23.888Z,48.16
2017-05-17T05:10:25.308Z,47.67
2017-05-17T05:11:26.776Z,48.25
2017-05-17T05:12:28.150Z,48.13
2017-05-17T05:13:29.568Z,48.83
2017-05-17T05:14:30.991Z,48.54
2017-05-17T05:15:32.410Z,48.64
2017-05-17T05:16:33.831Z,48.81
2017-05-17T05:17:35.250Z,48.43
2017-05-17T05:18:36.671Z,48.64
2017-05-17T05:19:38.090Z,48.52
2017-05-17T05:20:39.515Z,48.74
2017-05-17T05:21:40.930Z,48.64
2017-05-17T05:22:42.352Z,49.48
2017-05-17T05:23:43.773Z,49.10
2017-05-17T05:24:45.193Z,49.48
2017-05-17T05:25:46.614Z,49.48
2017-05-17T05:26:48.031Z,49.38
2017-05-17T05:27:49.454Z,49.29
2017-05-17T05:28:50.876Z,49.29
2017-05-17T05:29:52.297Z,49.29
2017-05-17T05:30:53.718Z,49.38
2017-05-17T05:31:55.134Z,49.29
2017-05-17T05:32:56.554Z,49.10
2017-05-17T05:33:57.972Z,49.41
2017-05-17T05:34:59.395Z,49.19
2017-05-17T05:36:00.820Z,49.48
2017-05-17T05:37:02.240Z,49.19
2017-05-17T05:38:03.658Z,49.58
2017-05-17T05:39:05.081Z,49.51
2017-05-17T05:40:06.501Z,49.19
2017-05-17T05:41:07.922Z,49.19
2017-05-17T05:42:09.344Z,49.41
2017-05-17T05:43:10.764Z,49.22
2017-05-17T05:44:12.188Z,49.32
2017-05-17T05:45:13.608Z,48.54
2017-05-17T05:46:15.028Z,48.64
2017-05-17T05:47:16.453Z,48.86
2017-05-17T05:48:17.867Z,48.38
2017-05-17T05:49:19.298Z,48.47
2017-05-17T05:50:20.755Z,48.66
2017-05-17T05:51:22.175Z,48.38
2017-05-17T05:52:23.599Z,48.86
2017-05-17T05:53:25.013Z,48.76
2017-05-17T05:54:26.431Z,48.18
2017-05-17T05:55:27.850Z,47.60
2017-05-17T05:56:29.271Z,47.53
2017-05-17T05:57:30.694Z,47.72
2017-05-17T05:58:32.162Z,48.08
2017-05-17T05:59:33.535Z,47.51
2017-05-17T06:00:34.953Z,47.31
2017-05-17T06:01:36.373Z,47.51
2017-05-17T06:02:37.792Z,47.60
2017-05-17T06:03:39.213Z,47.99
2017-05-17T06:04:40.636Z,47.82
2017-05-17T06:05:42.059Z,48.21
2017-05-17T06:06:47.600Z,48.01
2017-05-17T06:07:48.978Z,47.82
2017-05-17T06:08:50.397Z,48.11
2017-05-17T06:09:51.817Z,46.18
2017-05-17T06:10:53.239Z,46.47
2017-05-17T06:11:54.660Z,46.66
2017-05-17T06:12:56.082Z,46.56
2017-05-17T06:13:57.502Z,46.55
2017-05-17T06:14:58.923Z,47.41
2017-05-17T06:16:00.342Z,47.60
2017-05-17T06:17:01.760Z,46.83
2017-05-17T06:18:03.181Z,47.60
2017-05-17T06:19:04.605Z,47.31
2017-05-17T06:20:06.028Z,47.51
2017-05-17T06:21:07.445Z,49.37
2017-05-17T06:22:08.864Z,46.66
2017-05-17T06:23:10.311Z,47.34
2017-05-17T06:24:11.731Z,46.47
2017-05-17T06:25:13.151Z,46.18
2017-05-17T06:26:14.573Z,46.56
2017-05-17T06:27:15.997Z,46.18
2017-05-17T06:28:17.414Z,48.61
2017-05-17T06:29:18.831Z,48.61
2017-05-17T06:30:20.251Z,47.27
2017-05-17T06:31:21.671Z,46.97
2017-05-17T06:32:24.524Z,47.85
2017-05-17T06:33:28.719Z,48.71
2017-05-17T06:34:32.840Z,48.06
2017-05-17T06:35:37.249Z,48.06
2017-05-17T06:36:40.901Z,47.96
2017-05-17T06:37:45.008Z,46.71
2017-05-17T06:38:49.527Z,47.29
2017-05-17T06:39:53.166Z,48.06
2017-05-17T06:40:57.420Z,48.25
2017-05-17T06:42:01.118Z,48.83
2017-05-17T06:43:03.901Z,48.16
2017-05-17T06:44:07.667Z,45.48
2017-05-17T06:45:09.046Z,45.00
2017-05-17T06:46:10.467Z,44.90
2017-05-17T06:47:11.888Z,45.38
2017-05-17T06:48:13.331Z,45.18
2017-05-17T06:49:14.754Z,45.96
2017-05-17T06:50:16.175Z,46.34
2017-05-17T06:51:20.907Z,46.44
2017-05-17T06:52:22.329Z,45.76
2017-05-17T06:53:23.758Z,45.57
2017-05-17T06:54:25.181Z,45.67
2017-05-17T06:55:30.193Z,45.48
2017-05-17T06:56:31.688Z,45.18
2017-05-17T06:57:33.066Z,45.28
2017-05-17T06:58:34.485Z,45.09
2017-05-17T06:59:35.908Z,45.18
2017-05-17T07:00:37.329Z,44.80
2017-05-17T07:01:38.750Z,45.00
2017-05-17T07:02:40.174Z,44.90
2017-05-17T07:03:41.598Z,44.80
2017-05-17T07:04:46.754Z,44.90
2017-05-17T07:05:48.181Z,45.00
2017-05-17T07:06:49.601Z,44.80
2017-05-17T07:07:51.334Z,45.00
2017-05-17T07:08:52.759Z,44.80
2017-05-17T07:09:54.182Z,44.80
2017-05-17T07:10:55.604Z,45.00
2017-05-17T07:11:57.032Z,44.73
2017-05-17T07:12:58.456Z,44.90
2017-05-17T07:14:02.752Z,44.82
2017-05-17T07:15:04.416Z,44.73
2017-05-17T07:16:07.579Z,44.80
2017-05-17T07:17:10.045Z,44.82
2017-05-17T07:18:11.467Z,44.82
2017-05-17T07:19:12.890Z,44.82
2017-05-17T07:20:17.212Z,45.01
2017-05-17T07:21:18.860Z,45.01
2017-05-17T07:22:20.286Z,45.11
2017-05-17T07:23:21.709Z,45.01
2017-05-17T07:24:24.268Z,44.73
2017-05-17T07:25:27.126Z,45.01
2017-05-17T07:26:31.847Z,45.11
2017-05-17T07:27:33.223Z,44.82
2017-05-17T07:28:38.059Z,44.82
2017-05-17T07:29:39.513Z,44.82
2017-05-17T07:30:40.935Z,45.01
2017-05-17T07:31:42.359Z,45.01
2017-05-17T07:32:43.783Z,45.11
2017-05-17T07:33:45.203Z,44.73
2017-05-17T07:34:46.625Z,44.82
2017-05-17T07:35:48.051Z,44.92
2017-05-17T07:36:50.296Z,44.73
2017-05-17T07:37:53.814Z,44.82
2017-05-17T07:38:55.486Z,45.31
2017-05-17T07:39:56.911Z,45.21
2017-05-17T07:41:02.391Z,45.21
2017-05-17T07:42:07.960Z,45.31
2017-05-17T07:43:13.821Z,45.21
2017-05-17T07:44:16.604Z,45.01
2017-05-17T07:45:18.026Z,45.01
2017-05-17T07:46:19.450Z,45.31
2017-05-17T07:47:23.320Z,45.40
2017-05-17T07:48:25.187Z,45.21
2017-05-17T07:49:26.608Z,44.92
2017-05-17T07:50:28.030Z,44.92
2017-05-17T07:51:29.454Z,44.82
2017-05-17T07:52:30.875Z,45.11
2017-05-17T07:53:32.299Z,45.01
2017-05-17T07:54:33.727Z,45.01
2017-05-17T07:55:35.147Z,45.01
2017-05-17T07:56:36.841Z,44.82
2017-05-17T07:57:38.263Z,44.92
2017-05-17T07:58:39.684Z,44.82
2017-05-17T07:59:42.446Z,45.01
2017-05-17T08:00:44.477Z,44.92
2017-05-17T08:01:45.901Z,44.92
2017-05-17T08:02:47.324Z,44.73
2017-05-17T08:03:48.745Z,45.11
2017-05-17T08:04:54.251Z,44.92
2017-05-17T08:05:55.636Z,44.82
2017-05-17T08:07:01.524Z,44.82
2017-05-17T08:08:05.346Z,44.73
2017-05-17T08:09:10.077Z,44.92
2017-05-17T08:10:11.770Z,44.92
2017-05-17T08:11:13.191Z,45.01
2017-05-17T08:12:14.611Z,44.92
2017-05-17T08:13:16.034Z,44.92
2017-05-17T08:14:20.034Z,44.92
2017-05-17T08:15:21.741Z,44.92
2017-05-17T08:16:23.164Z,45.01
2017-05-17T08:17:24.586Z,45.01
2017-05-17T08:18:30.204Z,45.01
2017-05-17T08:19:31.586Z,44.82
2017-05-17T08:20:33.010Z,44.73
2017-05-17T08:21:34.432Z,44.92
2017-05-17T08:22:39.488Z,44.92
2017-05-17T08:23:40.881Z,44.92
2017-05-17T08:24:42.308Z,44.82
2017-05-17T08:25:47.655Z,45.01
2017-05-17T08:26:49.070Z,44.92
2017-05-17T08:27:50.491Z,44.92
2017-05-17T08:28:51.920Z,45.11
2017-05-17T08:29:53.344Z,45.23
2017-05-17T08:30:54.767Z,45.72
2017-05-17T08:31:56.190Z,45.31
2017-05-17T08:32:57.606Z,44.84
2017-05-17T08:33:59.030Z,45.04
2017-05-17T08:35:00.463Z,44.84
2017-05-17T08:36:01.878Z,44.84
2017-05-17T08:37:03.299Z,45.33
2017-05-17T08:38:04.726Z,44.84
2017-05-17T08:39:06.145Z,45.23
2017-05-17T08:40:07.568Z,45.33
2017-05-17T08:41:08.987Z,45.62
2017-05-17T08:42:10.412Z,45.81
2017-05-17T08:43:11.837Z,45.62
2017-05-17T08:44:13.261Z,45.62
2017-05-17T08:45:14.685Z,45.33
2017-05-17T08:46:16.105Z,45.33
2017-05-17T08:47:17.524Z,45.52
2017-05-17T08:48:18.947Z,45.81
2017-05-17T08:49:20.370Z,45.04
2017-05-17T08:50:21.792Z,44.94
2017-05-17T08:51:23.486Z,44.94
2017-05-17T08:52:24.917Z,45.91
2017-05-17T08:53:26.339Z,46.20
2017-05-17T08:54:27.765Z,45.91
2017-05-17T08:55:29.182Z,45.52
2017-05-17T08:56:30.603Z,46.68
2017-05-17T08:57:32.041Z,45.72
2017-05-17T08:58:33.466Z,46.00
2017-05-17T08:59:34.886Z,45.81
2017-05-17T09:00:36.314Z,45.81
2017-05-17T09:01:37.728Z,46.39
2017-05-17T09:02:39.151Z,46.30
2017-05-17T09:03:40.571Z,45.91
2017-05-17T09:04:41.995Z,46.00
2017-05-17T09:05:43.425Z,45.72
2017-05-17T09:06:44.853Z,45.62
2017-05-17T09:07:46.271Z,45.42
2017-05-17T09:08:47.699Z,46.00
2017-05-17T09:09:49.128Z,46.10
2017-05-17T09:10:50.550Z,45.33
2017-05-17T09:11:51.974Z,45.33
2017-05-17T09:12:53.407Z,45.14
2017-05-17T09:13:54.829Z,44.75
2017-05-17T09:14:56.251Z,45.14
2017-05-17T09:15:57.675Z,45.04
2017-05-17T09:16:59.138Z,44.94
2017-05-17T09:18:00.557Z,45.04
2017-05-17T09:19:01.985Z,44.94
2017-05-17T09:20:03.407Z,44.94
2017-05-17T09:21:04.834Z,45.04
2017-05-17T09:22:06.257Z,44.75
2017-05-17T09:23:07.675Z,44.94
2017-05-17T09:24:09.098Z,45.04
2017-05-17T09:25:10.516Z,44.94
2017-05-17T09:26:11.938Z,45.04
2017-05-17T09:27:13.366Z,45.04
2017-05-17T09:28:14.794Z,44.94
2017-05-17T09:29:16.212Z,44.84
2017-05-17T09:30:17.633Z,45.04
2017-05-17T09:31:19.055Z,44.56
2017-05-17T09:32:20.479Z,44.84
2017-05-17T09:33:21.902Z,44.65
2017-05-17T09:34:23.326Z,44.75
2017-05-17T09:35:24.752Z,44.46
2017-05-17T09:36:26.174Z,44.36
2017-05-17T09:37:27.596Z,45.14
2017-05-17T09:38:29.017Z,44.36
2017-05-17T09:39:30.442Z,44.36
2017-05-17T09:40:31.910Z,44.94
2017-05-17T09:41:33.327Z,44.36
2017-05-17T09:42:34.749Z,45.04
2017-05-17T09:43:36.171Z,44.46
2017-05-17T09:44:37.590Z,44.46
2017-05-17T09:45:39.010Z,45.04
2017-05-17T09:46:40.434Z,44.38
2017-05-17T09:47:41.861Z,44.75
2017-05-17T09:48:43.281Z,44.84
2017-05-17T09:49:44.707Z,44.75
2017-05-17T09:50:46.128Z,44.38
2017-05-17T09:51:47.551Z,43.99
2017-05-17T09:52:48.971Z,44.19
2017-05-17T09:53:50.392Z,44.19
2017-05-17T09:54:51.816Z,44.19
2017-05-17T09:55:53.241Z,44.38
2017-05-17T09:56:54.664Z,44.09
2017-05-17T09:57:56.085Z,43.99
2017-05-17T09:58:57.501Z,43.99
2017-05-17T09:59:58.927Z,44.48
2017-05-17T10:01:00.350Z,44.19
2017-05-17T10:02:01.771Z,44.87
2017-05-17T10:03:03.198Z,43.99
2017-05-17T10:04:04.621Z,43.99
2017-05-17T10:05:06.044Z,43.71
2017-05-17T10:06:07.466Z,43.80
2017-05-17T10:07:08.887Z,43.61
2017-05-17T10:08:10.310Z,43.90
2017-05-17T10:09:11.735Z,43.90
2017-05-17T10:10:13.159Z,44.48
2017-05-17T10:11:14.581Z,44.48
2017-05-17T10:12:16.004Z,44.09
2017-05-17T10:13:17.423Z,44.19
2017-05-17T10:14:18.843Z,43.99
2017-05-17T10:15:20.266Z,43.61
2017-05-17T10:16:21.692Z,43.90
2017-05-17T10:17:23.114Z,44.09
2017-05-17T10:18:24.555Z,44.19
2017-05-17T10:19:25.978Z,44.09
2017-05-17T10:20:27.402Z,44.09
2017-05-17T10:21:28.827Z,43.99
2017-05-17T10:22:30.247Z,43.80
2017-05-17T10:23:31.671Z,44.29
2017-05-17T10:24:33.094Z,44.09
2017-05-17T10:25:34.526Z,43.71
2017-05-17T10:26:35.995Z,43.61
2017-05-17T10:27:37.365Z,43.90
2017-05-17T10:28:38.791Z,43.80
2017-05-17T10:29:40.213Z,43.99
2017-05-17T10:30:41.635Z,43.71
2017-05-17T10:31:43.062Z,43.80
2017-05-17T10:32:44.491Z,44.02
2017-05-17T10:33:45.906Z,43.90
2017-05-17T10:34:47.327Z,43.80
2017-05-17T10:35:48.747Z,43.44
2017-05-17T10:36:50.169Z,43.51
2017-05-17T10:37:51.595Z,43.34
2017-05-17T10:38:53.015Z,43.41
2017-05-17T10:39:54.441Z,43.61
2017-05-17T10:40:55.860Z,43.32
2017-05-17T10:41:57.282Z,43.23
2017-05-17T10:42:58.704Z,43.23
2017-05-17T10:44:00.127Z,43.41
2017-05-17T10:45:01.551Z,43.44
2017-05-17T10:46:02.974Z,43.34
2017-05-17T10:47:04.398Z,43.32
2017-05-17T10:48:05.822Z,43.34
2017-05-17T10:49:07.242Z,43.44
2017-05-17T10:50:08.664Z,43.54
2017-05-17T10:51:10.088Z,43.41
2017-05-17T10:52:11.510Z,43.15
2017-05-17T10:53:12.936Z,43.44
2017-05-17T10:54:14.358Z,43.63
2017-05-17T10:55:15.781Z,43.82
2017-05-17T10:56:17.203Z,43.24
2017-05-17T10:57:18.626Z,43.24
2017-05-17T10:58:20.056Z,43.44
2017-05-17T10:59:21.482Z,43.05
2017-05-17T11:00:22.909Z,43.34
2017-05-17T11:01:24.334Z,43.34
2017-05-17T11:02:25.755Z,43.24
2017-05-17T11:03:27.181Z,44.12
2017-05-17T11:04:28.602Z,42.86
2017-05-17T11:05:30.025Z,43.15
2017-05-17T11:06:31.449Z,43.34
2017-05-17T11:07:32.879Z,43.24
2017-05-17T11:08:34.295Z,43.15
2017-05-17T11:09:35.717Z,44.21
2017-05-17T11:10:37.137Z,43.15
2017-05-17T11:11:38.559Z,43.44
2017-05-17T11:12:39.984Z,43.24
2017-05-17T11:13:41.407Z,42.96
2017-05-17T11:14:42.831Z,43.34
2017-05-17T11:15:44.256Z,43.24
2017-05-17T11:16:45.676Z,42.76
2017-05-17T11:17:47.100Z,43.05
2017-05-17T11:18:48.521Z,43.05
2017-05-17T11:19:49.943Z,42.86
2017-05-17T11:20:51.368Z,43.15
2017-05-17T11:21:52.797Z,43.24
2017-05-17T11:22:54.221Z,42.76
2017-05-17T11:23:55.640Z,42.96
2017-05-17T11:24:57.063Z,43.15
2017-05-17T11:25:58.490Z,43.24
2017-05-17T11:26:59.908Z,43.05
2017-05-17T11:28:01.337Z,43.34
2017-05-17T11:29:02.761Z,43.15
2017-05-17T11:30:04.184Z,43.44
2017-05-17T11:31:05.607Z,43.34
2017-05-17T11:32:07.031Z,42.96
2017-05-17T11:33:08.451Z,43.44
2017-05-17T11:34:09.873Z,43.34
2017-05-17T11:35:11.297Z,42.66
2017-05-17T11:36:12.719Z,42.76
2017-05-17T11:37:14.143Z,42.86
2017-05-17T11:38:15.566Z,43.05
2017-05-17T11:39:17.077Z,42.96
2017-05-17T11:40:18.498Z,43.05
2017-05-17T11:41:19.925Z,43.05
2017-05-17T11:42:21.346Z,42.86
2017-05-17T11:43:22.772Z,42.96
2017-05-17T11:44:24.196Z,42.66
2017-05-17T11:45:25.616Z,42.76
2017-05-17T11:46:27.040Z,42.96
2017-05-17T11:47:28.465Z,42.86
2017-05-17T11:48:29.885Z,42.86
2017-05-17T11:49:31.309Z,42.76
2017-05-17T11:50:32.736Z,42.76
2017-05-17T11:51:34.161Z,42.76
2017-05-17T11:52:35.580Z,42.76
2017-05-17T11:53:37.000Z,42.86
2017-05-17T11:54:38.421Z,42.96
2017-05-17T11:55:39.845Z,42.76
2017-05-17T11:56:41.278Z,42.78
2017-05-17T11:57:42.705Z,42.76
2017-05-17T11:58:44.128Z,42.88
2017-05-17T11:59:45.549Z,42.96
2017-05-17T12:00:46.970Z,42.96
2017-05-17T12:01:48.390Z,42.78
2017-05-17T12:02:49.813Z,42.96
2017-05-17T12:03:51.237Z,42.76
2017-05-17T12:04:52.672Z,43.05
2017-05-17T12:05:54.104Z,43.34
2017-05-17T12:06:55.520Z,43.44
2017-05-17T12:07:56.943Z,43.15
2017-05-17T12:08:58.366Z,43.34
2017-05-17T12:09:59.788Z,43.07
2017-05-17T12:11:01.212Z,43.07
2017-05-17T12:12:02.637Z,43.24
2017-05-17T12:13:04.060Z,43.07
2017-05-17T12:14:05.482Z,43.17
2017-05-17T12:15:06.904Z,43.17
2017-05-17T12:16:08.329Z,43.07
2017-05-17T12:17:09.777Z,42.88
2017-05-17T12:18:11.200Z,43.07
2017-05-17T12:19:12.625Z,42.78
2017-05-17T12:20:14.050Z,43.17
2017-05-17T12:21:15.470Z,42.88
2017-05-17T12:22:16.895Z,42.97
2017-05-17T12:23:18.318Z,42.88
2017-05-17T12:24:19.739Z,42.68
2017-05-17T12:25:21.163Z,42.78
2017-05-17T12:26:22.587Z,42.88
2017-05-17T12:27:24.014Z,42.88
2017-05-17T12:28:25.438Z,42.88
2017-05-17T12:29:26.858Z,42.78
2017-05-17T12:30:28.281Z,42.88
2017-05-17T12:31:29.707Z,42.88
2017-05-17T12:32:31.127Z,42.97
2017-05-17T12:33:32.554Z,42.88
2017-05-17T12:34:33.979Z,42.97
2017-05-17T12:35:35.401Z,42.88
2017-05-17T12:36:36.830Z,43.27
2017-05-17T12:37:38.250Z,42.97
2017-05-17T12:38:39.672Z,43.07
2017-05-17T12:39:41.095Z,43.07
2017-05-17T12:40:42.521Z,42.97
2017-05-17T12:41:43.945Z,43.07
2017-05-17T12:42:45.369Z,43.07
2017-05-17T12:43:46.791Z,43.37
2017-05-17T12:44:48.240Z,42.96
2017-05-17T12:45:49.660Z,42.96
2017-05-17T12:46:51.086Z,42.96
2017-05-17T12:47:52.509Z,42.66
2017-05-17T12:48:53.958Z,42.88
2017-05-17T12:49:55.383Z,42.97
2017-05-17T12:50:56.800Z,43.05
2017-05-17T12:51:58.223Z,42.68
2017-05-17T12:52:59.645Z,43.27
2017-05-17T12:54:01.098Z,43.34
2017-05-17T12:55:02.525Z,43.27
2017-05-17T12:56:03.952Z,43.07
2017-05-17T12:57:05.370Z,42.97
2017-05-17T12:58:06.790Z,42.97
2017-05-17T12:59:08.223Z,42.78
2017-05-17T13:00:09.639Z,42.97
2017-05-17T13:01:11.060Z,43.44
2017-05-17T13:02:12.482Z,43.24
2017-05-17T13:03:13.908Z,43.37
2017-05-17T13:04:15.331Z,43.46
2017-05-17T13:05:16.753Z,44.12
2017-05-17T13:06:18.174Z,43.65
2017-05-17T13:07:19.596Z,43.34
2017-05-17T13:08:21.020Z,42.96
2017-05-17T13:09:22.452Z,43.15
2017-05-17T13:10:23.877Z,42.78
2017-05-17T13:11:25.297Z,42.96
2017-05-17T13:12:26.721Z,42.97